Airfield :
LOGIN :

Register | Disclaimer

   EN    FR    IT 

 










Legend :    VFR   Marginal VFR   IFR   Intensive IFR   Very Intensive IFR
Visi :
Ceiling :
>= 8 km
>= 3000ft
5 to 8 km
1000 to 3000 ft
1500m to 5 km
500 to 1000 ft
800 to 1500m
200 to 500 ft
< 800m
< 200 ft
Symbols :   Thunderstorms  Fog  Heavy snow  Heavy precipitations  Wind > 20 kt
SIGMETs :     Misc.  Thunderstorms  Icing  Turbulence  Mountain Waves  Volcanic Ashes






- Airport Elevation : 8 ft
- IATA code : LCA


LCLK - Larnaca Int.

CURRENT METAR :
  • 111200Z 21017KT 9999 FEW030TCU 33/25 Q1005 NOSIG

EXPIRED METARs :
  • 111130Z 20013KT 9999 FEW018 FEW030TCU 33/25 Q1006 NOSIG
  • 111100Z 18010KT 9999 FEW018 FEW030TCU 32/24 Q1006 NOSIG
  • 111030Z 19011KT 9999 FEW010 31/25 Q1006 NOSIG
  • 111000Z 19011KT 9999 FEW010 31/26 Q1007 NOSIG
  • 110930Z 18012KT 9999 FEW010 31/26 Q1007 NOSIG

TAF TAF LCLK
Valid from the 11 at 12:00 until the 12 at 12:00 UTC


111130Z 1112/1212 22016KT 9999 FEW030
BECMG 1120/1123 VRB03KT
PROB30 1120/1205 5000 BR BKN005
BECMG 1209/1212 21015KT



MET'MAP, your aeronautical weather chart ! - Copyright ORBIFLY December 2007 - Disclaimer

ORBIFLY MET'MAP TEAM :

Programming & Development : Alexandra Zaïnal
Concept & original design : Baudouin d'Aumeries
Assistance for programming : Marc-Olivier Méhu
Technical & hardware support : Manuel Goepfert

Contact : metmap@orbifly.com




SOURCES & CREDITS :

   NOAA